KFLG/FLG METAR and TAF weather

Enter ICAO airport designator
Station Type Date Time Source
KFLG METAR 2019/06/17 05:57 UTC NOAA

KFLG 170557Z AUTO 21003KT 10SM CLR 13/05 A3018 RMK AO2 SLP116 T01330050 10233 20128 51012


Station Type Date Time Source
KFLG Decoded METAR 2019/06/17 05:57 UTC NOAA

FLAGSTAFF PULLIAM AIRPORT, AZ, United States (KFLG) 35-08N 111-40W 2134M
Jun 17, 2019 - 01:57 AM EDT / 2019.06.17 0557 UTC
Wind: from the SSW (210 degrees) at 3 MPH (3 KT):0
Visibility: 10 mile(s):0
Sky conditions: clear
Temperature: 55.9 F (13.3 C)
Dew Point: 41.0 F (5.0 C)
Relative Humidity: 57%
Pressure (altimeter): 30.18 in. Hg (1022 hPa)
Pressure tendency: 0.04 inches (1.2 hPa) higher than three hours ago
ob: KFLG 170557Z AUTO 21003KT 10SM CLR 13/05 A3018 RMK AO2 SLP116 T01330050 10233 20128 51012
cycle: 6

Station Type Date Time Source
KFLG TAF 2019/06/17 06:33 UTC NOAA

TAF KFLG 170530Z 1706/1806 VRB05KT P6SM SCT100
FM171700 21010G20KT P6SM FEW100 SCT200
FM180200 VRB05KT P6SM FEW100

Example: see airport list